createdAt,value
2018-01-16T00:02:01.954Z,77.45
2018-01-16T00:04:30.229Z,77.74
2018-01-16T00:06:58.530Z,78.02
2018-01-16T00:09:26.985Z,78.34
2018-01-16T00:11:55.358Z,78.61
2018-01-16T00:14:23.631Z,79.11
2018-01-16T00:16:51.932Z,79.48
2018-01-16T00:19:20.210Z,79.11
2018-01-16T00:21:48.664Z,79.40
2018-01-16T00:24:17.099Z,79.50
2018-01-16T00:26:45.390Z,79.44
2018-01-16T00:29:13.667Z,79.52
2018-01-16T00:31:41.994Z,79.02
2018-01-16T00:34:10.274Z,79.23
2018-01-16T00:36:38.579Z,79.39
2018-01-16T00:39:06.847Z,79.50
2018-01-16T00:41:35.136Z,79.88
2018-01-16T00:44:03.427Z,79.81
2018-01-16T00:46:32.035Z,79.49
2018-01-16T00:49:00.298Z,79.77
2018-01-16T00:51:28.598Z,80.55
2018-01-16T00:53:56.879Z,81.08
2018-01-16T00:56:25.331Z,82.02
2018-01-16T00:58:53.615Z,82.61
2018-01-16T01:01:22.094Z,82.83
2018-01-16T01:03:50.555Z,83.56
2018-01-16T01:06:18.845Z,83.87
2018-01-16T01:08:47.163Z,84.30
2018-01-16T01:11:15.611Z,84.76
2018-01-16T01:13:43.919Z,85.40
2018-01-16T01:16:12.217Z,86.14
2018-01-16T01:18:40.594Z,86.81
2018-01-16T01:21:08.915Z,87.42
2018-01-16T01:23:37.182Z,87.73
2018-01-16T01:26:05.474Z,87.90
2018-01-16T01:28:33.732Z,87.77
2018-01-16T01:31:02.018Z,87.73
2018-01-16T01:33:30.467Z,87.72
2018-01-16T01:35:58.778Z,86.96
2018-01-16T01:38:27.067Z,87.24
2018-01-16T01:40:55.374Z,87.40
2018-01-16T01:43:23.702Z,87.15
2018-01-16T01:45:51.991Z,87.35
2018-01-16T01:48:20.318Z,87.79
2018-01-16T01:50:48.606Z,87.58
2018-01-16T01:53:17.083Z,88.05
2018-01-16T01:55:45.390Z,88.28
2018-01-16T01:58:13.681Z,88.64
2018-01-16T02:00:41.987Z,89.29
2018-01-16T02:03:10.246Z,89.83
2018-01-16T02:05:38.546Z,90.55
2018-01-16T02:08:06.948Z,90.89
2018-01-16T02:10:35.480Z,91.61
2018-01-16T02:13:03.783Z,92.24
2018-01-16T02:15:32.219Z,92.69
2018-01-16T02:18:00.511Z,92.92
2018-01-16T02:20:28.981Z,93.58
2018-01-16T02:22:57.258Z,93.89
2018-01-16T02:25:25.558Z,94.05
2018-01-16T02:27:54.710Z,94.23
2018-01-16T02:30:23.018Z,94.31
2018-01-16T02:32:51.300Z,94.14
2018-01-16T02:35:19.587Z,94.17
2018-01-16T02:37:47.847Z,94.29
2018-01-16T02:40:16.142Z,94.47
2018-01-16T02:42:44.440Z,94.40
2018-01-16T02:45:12.884Z,94.44
2018-01-16T02:47:41.355Z,94.47
2018-01-16T02:50:09.654Z,94.51
2018-01-16T02:52:38.163Z,94.33
2018-01-16T02:55:06.472Z,94.16
2018-01-16T02:57:34.779Z,93.96
2018-01-16T03:00:03.031Z,94.09
2018-01-16T03:02:31.332Z,94.00
2018-01-16T03:04:59.763Z,93.92
2018-01-16T03:07:28.126Z,93.82
2018-01-16T03:09:56.411Z,94.33
2018-01-16T03:12:24.816Z,94.13
2018-01-16T03:14:53.102Z,93.95
2018-01-16T03:17:21.416Z,94.22
2018-01-16T03:19:49.827Z,94.26
2018-01-16T03:22:18.340Z,94.13
2018-01-16T03:24:46.606Z,94.13
2018-01-16T03:27:15.020Z,94.19
2018-01-16T03:29:43.822Z,94.10
2018-01-16T03:32:12.128Z,94.23
2018-01-16T03:34:40.651Z,94.11
2018-01-16T03:37:08.939Z,93.93
2018-01-16T03:39:37.192Z,94.20
2018-01-16T03:42:05.637Z,94.27
2018-01-16T03:44:33.935Z,94.36
2018-01-16T03:47:02.329Z,94.63
2018-01-16T03:49:30.662Z,94.53
2018-01-16T03:51:59.073Z,94.30
2018-01-16T03:54:27.323Z,94.28
2018-01-16T03:56:55.829Z,94.44
2018-01-16T03:59:24.081Z,94.25
2018-01-16T04:01:52.378Z,94.22
2018-01-16T04:04:20.642Z,94.42
2018-01-16T04:06:48.934Z,94.53
2018-01-16T04:09:17.184Z,94.43
2018-01-16T04:11:45.486Z,94.58
2018-01-16T04:14:13.734Z,94.48
2018-01-16T04:16:42.048Z,94.61
2018-01-16T04:19:10.298Z,94.50
2018-01-16T04:21:38.606Z,94.50
2018-01-16T04:24:06.849Z,94.26
2018-01-16T04:26:35.162Z,94.59
2018-01-16T04:29:03.446Z,94.56
2018-01-16T04:31:32.173Z,94.49
2018-01-16T04:34:01.018Z,94.36
2018-01-16T04:36:29.483Z,94.15
2018-01-16T04:38:58.104Z,94.28
2018-01-16T04:41:26.652Z,94.28
2018-01-16T04:43:54.959Z,94.23
2018-01-16T04:46:23.237Z,94.39
2018-01-16T04:48:51.636Z,94.41
2018-01-16T04:51:20.342Z,94.23
2018-01-16T04:53:48.626Z,94.49
2018-01-16T04:56:18.336Z,94.39
2018-01-16T04:58:47.133Z,94.37
2018-01-16T05:04:11.026Z,94.32
2018-01-16T05:06:39.793Z,94.36
2018-01-16T05:09:08.206Z,94.19
2018-01-16T05:11:36.730Z,93.97
2018-01-16T05:14:09.041Z,94.11
2018-01-16T05:16:38.764Z,94.02
2018-01-16T05:19:07.327Z,94.09
2018-01-16T05:21:35.589Z,94.21
2018-01-16T05:24:03.830Z,94.12
2018-01-16T05:26:32.307Z,94.26
2018-01-16T05:29:00.801Z,94.15
2018-01-16T05:31:29.257Z,94.10
2018-01-16T05:33:57.696Z,94.33
2018-01-16T05:36:26.041Z,94.40
2018-01-16T05:38:54.941Z,94.50
2018-01-16T05:41:23.301Z,94.31
2018-01-16T05:43:51.749Z,94.41
2018-01-16T05:46:24.690Z,94.42
2018-01-16T05:48:53.861Z,94.40
2018-01-16T05:51:22.221Z,94.40
2018-01-16T05:53:55.398Z,94.66
2018-01-16T05:56:24.648Z,94.75
2018-01-16T05:58:52.954Z,94.89
2018-01-16T06:01:22.677Z,94.61
2018-01-16T06:03:52.018Z,94.79
2018-01-16T06:06:24.013Z,94.95
2018-01-16T06:08:52.530Z,94.87
2018-01-16T06:11:21.181Z,94.97
2018-01-16T06:13:49.501Z,94.90
2018-01-16T06:16:18.339Z,94.94
2018-01-16T06:18:46.640Z,94.67
2018-01-16T06:21:14.948Z,94.67
2018-01-16T06:23:43.224Z,94.81
2018-01-16T06:26:11.493Z,94.71
2018-01-16T06:28:39.753Z,95.05
2018-01-16T06:31:08.028Z,95.08
2018-01-16T06:33:36.281Z,95.16
2018-01-16T06:36:04.568Z,95.33
2018-01-16T06:38:32.816Z,95.41
2018-01-16T06:41:01.249Z,95.53
2018-01-16T06:43:29.493Z,95.84
2018-01-16T06:45:57.770Z,95.80
2018-01-16T06:48:26.046Z,95.78
2018-01-16T06:50:54.339Z,95.92
2018-01-16T06:53:22.596Z,95.75
2018-01-16T06:55:50.904Z,96.11
2018-01-16T06:58:19.161Z,96.10
2018-01-16T07:00:47.465Z,95.95
2018-01-16T07:03:15.747Z,96.06
2018-01-16T07:05:44.045Z,95.99
2018-01-16T07:08:12.338Z,95.88
2018-01-16T07:10:40.602Z,96.03
2018-01-16T07:13:08.908Z,95.84
2018-01-16T07:15:37.181Z,95.95
2018-01-16T07:18:05.450Z,95.54
2018-01-16T07:20:33.799Z,95.42
2018-01-16T07:23:02.301Z,95.44
2018-01-16T07:25:30.600Z,95.49
2018-01-16T07:27:58.900Z,95.30
2018-01-16T07:30:27.166Z,95.40
2018-01-16T07:32:55.421Z,95.62
2018-01-16T07:35:23.748Z,95.55
2018-01-16T07:37:52.055Z,95.41
2018-01-16T07:40:20.505Z,95.02
2018-01-16T07:42:48.940Z,95.09
2018-01-16T07:45:17.249Z,95.04
2018-01-16T07:47:45.690Z,95.16
2018-01-16T07:50:14.028Z,95.37
2018-01-16T07:52:42.297Z,95.48
2018-01-16T07:55:10.756Z,95.17
2018-01-16T07:57:38.991Z,94.96
2018-01-16T08:00:07.296Z,94.93
2018-01-16T08:02:35.557Z,95.27
2018-01-16T08:05:03.864Z,95.01
2018-01-16T08:07:32.326Z,94.96
2018-01-16T08:10:00.636Z,95.12
2018-01-16T08:12:29.858Z,94.71
2018-01-16T08:14:58.121Z,94.48
2018-01-16T08:17:26.575Z,94.24
2018-01-16T08:19:55.241Z,94.31
2018-01-16T08:22:23.926Z,94.31
2018-01-16T08:24:52.177Z,93.84
2018-01-16T08:27:20.609Z,93.59
2018-01-16T08:29:49.049Z,93.12
2018-01-16T08:32:17.382Z,93.47
2018-01-16T08:34:45.816Z,93.02
2018-01-16T08:37:14.156Z,93.06
2018-01-16T08:39:42.448Z,92.43
2018-01-16T08:42:10.821Z,92.43
2018-01-16T08:44:39.147Z,91.86
2018-01-16T08:47:07.638Z,92.09
2018-01-16T08:49:36.096Z,92.37
2018-01-16T08:52:04.436Z,92.07
2018-01-16T08:54:32.702Z,91.93
2018-01-16T08:57:01.004Z,91.57
2018-01-16T08:59:29.321Z,91.51
2018-01-16T09:01:57.661Z,90.94
2018-01-16T09:04:25.921Z,90.80
2018-01-16T09:06:54.805Z,90.83
2018-01-16T09:09:23.558Z,90.47
2018-01-16T09:11:52.033Z,90.56
2018-01-16T09:14:20.528Z,90.58
2018-01-16T09:16:49.001Z,90.47
2018-01-16T09:19:17.242Z,89.43
2018-01-16T09:21:45.553Z,88.78
2018-01-16T09:24:13.821Z,88.38
2018-01-16T09:26:42.093Z,87.90
2018-01-16T09:29:10.354Z,88.39
2018-01-16T09:31:38.649Z,88.78
2018-01-16T09:34:06.915Z,89.03
2018-01-16T09:36:35.261Z,88.92
2018-01-16T09:39:03.645Z,89.32
2018-01-16T09:41:31.977Z,89.42
2018-01-16T09:44:00.341Z,88.77
2018-01-16T09:46:28.613Z,88.33
2018-01-16T09:48:56.867Z,88.27
2018-01-16T09:51:25.616Z,88.90
2018-01-16T09:53:53.880Z,88.99
2018-01-16T09:56:22.329Z,88.83
2018-01-16T09:58:50.608Z,88.93
2018-01-16T10:01:19.097Z,88.29
2018-01-16T10:03:47.556Z,88.33
2018-01-16T10:06:15.953Z,88.65
2018-01-16T10:08:44.264Z,88.17
2018-01-16T10:11:12.584Z,88.61
2018-01-16T10:13:40.948Z,88.07
2018-01-16T10:16:09.801Z,87.88
2018-01-16T10:18:38.196Z,87.66
2018-01-16T10:21:06.669Z,88.24
2018-01-16T10:23:35.089Z,88.69
2018-01-16T10:26:03.353Z,89.27
2018-01-16T10:28:31.852Z,89.57
2018-01-16T10:31:00.196Z,89.89
2018-01-16T10:33:28.601Z,89.75
2018-01-16T10:35:56.946Z,89.76
2018-01-16T10:38:25.203Z,88.50
2018-01-16T10:40:53.505Z,88.82
2018-01-16T10:43:21.788Z,88.85
2018-01-16T10:45:50.212Z,88.38
2018-01-16T10:48:18.460Z,87.44
2018-01-16T10:50:47.037Z,87.29
2018-01-16T10:53:15.293Z,87.90
2018-01-16T10:56:46.726Z,87.86
2018-01-16T10:59:23.678Z,87.62
2018-01-16T11:01:52.165Z,87.41
2018-01-16T11:04:20.612Z,87.48
2018-01-16T11:06:49.197Z,87.33
2018-01-16T11:09:17.464Z,87.02
2018-01-16T11:11:45.788Z,86.27
2018-01-16T11:14:14.118Z,84.04
2018-01-16T11:16:42.656Z,79.09
2018-01-16T11:19:10.972Z,81.78
2018-01-16T11:21:39.317Z,77.69
2018-01-16T11:24:07.660Z,77.90
2018-01-16T11:26:36.021Z,78.76
2018-01-16T11:29:04.408Z,81.60
2018-01-16T11:31:32.875Z,82.07
2018-01-16T11:34:01.306Z,83.47
2018-01-16T11:36:29.647Z,83.73
2018-01-16T11:38:58.430Z,83.27
2018-01-16T11:41:27.838Z,83.83
2018-01-16T11:43:56.111Z,83.24
2018-01-16T11:46:24.405Z,84.50
2018-01-16T11:48:52.702Z,84.73
2018-01-16T11:51:21.166Z,84.69
2018-01-16T11:53:49.596Z,84.85
2018-01-16T11:56:17.893Z,84.04
2018-01-16T11:58:46.351Z,84.17
2018-01-16T12:01:14.677Z,84.27
2018-01-16T12:03:42.996Z,84.15
2018-01-16T12:06:11.335Z,81.36
2018-01-16T12:08:39.603Z,78.16
2018-01-16T12:11:07.982Z,78.51
2018-01-16T12:13:36.437Z,67.82
2018-01-16T12:16:04.761Z,68.15
2018-01-16T12:18:33.395Z,68.53
2018-01-16T12:21:01.714Z,63.99
2018-01-16T12:23:30.084Z,70.61
2018-01-16T12:25:58.377Z,74.60
2018-01-16T12:28:26.702Z,73.93
2018-01-16T12:30:55.055Z,77.53
2018-01-16T12:33:23.501Z,79.83
2018-01-16T12:35:51.976Z,79.22
2018-01-16T12:38:20.290Z,77.46
2018-01-16T12:40:48.649Z,78.53
2018-01-16T12:43:16.924Z,78.91
2018-01-16T12:45:48.089Z,78.81
2018-01-16T12:48:16.646Z,78.81
2018-01-16T12:50:44.951Z,79.02
2018-01-16T12:53:13.360Z,78.47
2018-01-16T12:55:41.655Z,78.44
2018-01-16T12:58:09.917Z,77.90
2018-01-16T13:00:38.228Z,77.91
2018-01-16T13:03:06.732Z,75.88
2018-01-16T13:05:35.492Z,75.22
2018-01-16T13:08:03.766Z,77.83
2018-01-16T13:10:32.068Z,78.31
2018-01-16T13:13:00.368Z,79.70
2018-01-16T13:15:28.665Z,79.24
2018-01-16T13:17:58.175Z,79.85
2018-01-16T13:20:26.645Z,80.12
2018-01-16T13:22:54.897Z,80.35
2018-01-16T13:25:23.356Z,79.70
2018-01-16T13:27:51.680Z,79.98
2018-01-16T13:30:20.480Z,79.87
2018-01-16T13:32:49.064Z,80.93
2018-01-16T13:35:17.652Z,80.92
2018-01-16T13:37:46.821Z,81.57
2018-01-16T13:40:15.192Z,81.38
2018-01-16T13:42:43.831Z,80.96
2018-01-16T13:45:12.301Z,78.87
2018-01-16T13:47:40.612Z,80.83
2018-01-16T13:50:09.036Z,81.20
2018-01-16T13:52:37.505Z,80.93
2018-01-16T13:55:06.700Z,81.08
2018-01-16T13:57:35.025Z,81.82
2018-01-16T14:00:03.286Z,83.11
2018-01-16T14:02:31.597Z,83.34
2018-01-16T14:04:59.888Z,82.78
2018-01-16T14:07:28.224Z,82.37
2018-01-16T14:09:56.566Z,84.13
2018-01-16T14:12:24.882Z,83.37
2018-01-16T14:14:53.423Z,82.79
2018-01-16T14:17:21.773Z,82.56
2018-01-16T14:19:50.196Z,83.37
2018-01-16T14:22:18.557Z,82.99
2018-01-16T14:24:46.972Z,83.19
2018-01-16T14:27:15.339Z,83.67
2018-01-16T14:29:44.577Z,83.92
2018-01-16T14:32:12.875Z,84.20
2018-01-16T14:34:41.108Z,84.27
2018-01-16T14:37:09.540Z,84.57
2018-01-16T14:39:37.809Z,84.70
2018-01-16T14:42:06.351Z,84.75
2018-01-16T14:44:34.608Z,84.83
2018-01-16T14:47:03.889Z,84.88
2018-01-16T14:49:32.114Z,84.76
2018-01-16T14:52:00.623Z,85.56
2018-01-16T14:54:28.942Z,86.12
2018-01-16T14:56:57.353Z,85.80
2018-01-16T14:59:25.720Z,85.56
2018-01-16T15:01:54.185Z,85.55
2018-01-16T15:04:22.648Z,86.10
2018-01-16T15:06:51.019Z,85.64
2018-01-16T15:09:19.713Z,85.99
2018-01-16T15:11:48.196Z,86.44
2018-01-16T15:14:17.333Z,86.64
2018-01-16T15:16:47.406Z,86.73
2018-01-16T15:19:15.644Z,86.60
2018-01-16T15:21:44.333Z,86.84
2018-01-16T15:24:13.944Z,86.59
2018-01-16T15:26:44.544Z,86.64
2018-01-16T15:29:13.520Z,86.46
2018-01-16T15:31:47.398Z,86.68
2018-01-16T15:34:16.682Z,86.87
2018-01-16T15:36:45.002Z,86.86
2018-01-16T15:39:13.261Z,86.98
2018-01-16T15:41:41.585Z,87.20
2018-01-16T15:44:09.821Z,87.35
2018-01-16T15:46:38.109Z,87.16
2018-01-16T15:49:06.373Z,87.04
2018-01-16T15:51:34.668Z,87.38
2018-01-16T15:54:02.961Z,87.30
2018-01-16T15:56:31.425Z,87.59
2018-01-16T15:58:59.754Z,88.12
2018-01-16T16:01:28.080Z,88.75
2018-01-16T16:03:56.397Z,88.69
2018-01-16T16:06:24.697Z,89.44
2018-01-16T16:08:53.045Z,89.20
2018-01-16T16:11:21.476Z,89.37
2018-01-16T16:13:50.113Z,89.90
2018-01-16T16:16:18.690Z,89.96
2018-01-16T16:18:47.304Z,89.95
2018-01-16T16:21:15.697Z,90.73
2018-01-16T16:23:43.978Z,90.50
2018-01-16T16:26:12.285Z,90.62
2018-01-16T16:28:40.553Z,90.82
2018-01-16T16:31:08.846Z,90.01
2018-01-16T16:33:37.092Z,90.30
2018-01-16T16:36:05.376Z,91.35
2018-01-16T16:38:33.668Z,90.63
2018-01-16T16:41:01.949Z,90.43
2018-01-16T16:43:30.286Z,90.62
2018-01-16T16:45:58.608Z,91.07
2018-01-16T16:48:26.969Z,90.27
2018-01-16T16:50:55.376Z,91.08
2018-01-16T16:53:23.800Z,90.55
2018-01-16T16:55:52.077Z,90.71
2018-01-16T16:58:20.353Z,91.10
2018-01-16T17:00:48.654Z,90.63
2018-01-16T17:03:17.081Z,91.10
2018-01-16T17:05:52.027Z,90.75
2018-01-16T17:08:20.290Z,91.32
2018-01-16T17:10:48.597Z,91.77
2018-01-16T17:13:17.004Z,90.74
2018-01-16T17:15:45.274Z,91.06
2018-01-16T17:18:13.555Z,91.63
2018-01-16T17:20:41.854Z,91.26
2018-01-16T17:23:10.132Z,91.19
2018-01-16T17:25:38.561Z,91.03
2018-01-16T17:28:06.837Z,90.71
2018-01-16T17:30:35.329Z,90.39
2018-01-16T17:33:03.800Z,90.03
2018-01-16T17:35:32.285Z,90.08
2018-01-16T17:38:00.556Z,89.80
2018-01-16T17:40:28.836Z,90.26
2018-01-16T17:42:57.125Z,90.07
2018-01-16T17:45:25.613Z,90.35
2018-01-16T17:47:53.875Z,89.83
2018-01-16T17:50:22.192Z,90.42
2018-01-16T17:52:50.628Z,90.79
2018-01-16T17:55:18.900Z,89.64
2018-01-16T17:57:47.160Z,90.17
2018-01-16T18:00:15.429Z,90.93
2018-01-16T18:02:43.720Z,90.47
2018-01-16T18:05:12.033Z,91.10
2018-01-16T18:07:40.293Z,90.48
2018-01-16T18:10:08.593Z,89.80
2018-01-16T18:12:37.022Z,89.46
2018-01-16T18:15:05.529Z,88.75
2018-01-16T18:17:33.989Z,89.27
2018-01-16T18:20:02.460Z,88.82
2018-01-16T18:22:31.028Z,89.64
2018-01-16T18:24:59.368Z,90.44
2018-01-16T18:27:27.944Z,89.75
2018-01-16T18:29:56.302Z,89.10
2018-01-16T18:32:24.703Z,89.70
2018-01-16T18:34:53.839Z,89.22
2018-01-16T18:37:22.260Z,89.78
2018-01-16T18:39:50.700Z,89.91
2018-01-16T18:42:19.044Z,90.01
2018-01-16T18:44:47.472Z,90.12
2018-01-16T18:47:15.773Z,89.68
2018-01-16T18:49:44.044Z,90.00
2018-01-16T18:52:12.379Z,90.29
2018-01-16T18:54:40.693Z,90.49
2018-01-16T18:57:09.101Z,90.55
2018-01-16T18:59:40.870Z,90.84
2018-01-16T19:02:09.180Z,90.98
2018-01-16T19:04:41.576Z,91.02
2018-01-16T19:07:09.885Z,91.07
2018-01-16T19:09:38.397Z,91.19
2018-01-16T19:12:06.741Z,90.63
2018-01-16T19:14:35.181Z,90.86
2018-01-16T19:17:03.541Z,90.88
2018-01-16T19:19:36.047Z,90.58
2018-01-16T19:22:05.002Z,90.12
2018-01-16T19:24:35.038Z,89.30
2018-01-16T19:27:04.001Z,89.19
2018-01-16T19:29:32.285Z,89.04
2018-01-16T19:32:00.630Z,88.86
2018-01-16T19:34:28.972Z,88.25
2018-01-16T19:36:57.273Z,88.07
2018-01-16T19:39:25.525Z,87.35
2018-01-16T19:41:54.840Z,86.95
2018-01-16T19:44:23.321Z,85.67
2018-01-16T19:46:51.710Z,86.22
2018-01-16T19:49:19.998Z,85.98
2018-01-16T19:51:48.264Z,85.95
2018-01-16T19:54:23.223Z,85.49
2018-01-16T19:56:51.538Z,85.35
2018-01-16T19:59:19.772Z,85.72
2018-01-16T20:01:48.216Z,86.17
2018-01-16T20:04:16.488Z,85.66
2018-01-16T20:06:44.789Z,85.55
2018-01-16T20:09:13.080Z,84.64
2018-01-16T20:11:41.468Z,85.70
2018-01-16T20:14:09.722Z,85.77
2018-01-16T20:16:38.089Z,85.77
2018-01-16T20:19:06.372Z,85.74
2018-01-16T20:21:34.758Z,85.28
2018-01-16T20:24:03.098Z,85.78
2018-01-16T20:26:31.403Z,85.32
2018-01-16T20:28:59.661Z,85.96
2018-01-16T20:31:28.155Z,86.94
2018-01-16T20:33:57.651Z,86.63
2018-01-16T20:36:26.365Z,86.55
2018-01-16T20:38:54.813Z,86.25
2018-01-16T20:41:23.135Z,86.04
2018-01-16T20:43:51.409Z,86.36
2018-01-16T20:46:19.731Z,85.98
2018-01-16T20:48:48.010Z,85.65
2018-01-16T20:51:16.320Z,86.24
2018-01-16T20:53:44.560Z,86.51
2018-01-16T20:56:12.876Z,86.48
2018-01-16T20:58:41.116Z,84.92
2018-01-16T21:01:09.468Z,85.16
2018-01-16T21:03:37.784Z,85.41
2018-01-16T21:06:06.293Z,85.96
2018-01-16T21:08:34.559Z,85.70
2018-01-16T21:11:03.020Z,85.54
2018-01-16T21:13:31.469Z,85.78
2018-01-16T21:16:00.196Z,85.88
2018-01-16T21:18:28.632Z,85.58
2018-01-16T21:21:00.763Z,85.90
2018-01-16T21:23:29.604Z,85.63
2018-01-16T21:25:58.238Z,85.20
2018-01-16T21:28:27.315Z,85.25
2018-01-16T21:30:55.709Z,85.28
2018-01-16T21:33:24.288Z,85.28
2018-01-16T21:35:52.595Z,85.59
2018-01-16T21:38:21.885Z,85.73
2018-01-16T21:40:53.141Z,85.34
2018-01-16T21:43:24.746Z,85.42
2018-01-16T21:45:54.082Z,85.22
2018-01-16T21:48:22.740Z,85.89
2018-01-16T21:50:53.429Z,85.73
2018-01-16T21:53:26.066Z,85.59
2018-01-16T21:55:58.027Z,85.70
2018-01-16T21:58:28.246Z,85.70
2018-01-16T22:00:56.704Z,85.94
2018-01-16T22:03:25.148Z,85.90
2018-01-16T22:05:53.450Z,85.71
2018-01-16T22:08:21.759Z,85.22
2018-01-16T22:10:50.060Z,85.52
2018-01-16T22:13:18.465Z,85.23
2018-01-16T22:15:46.744Z,85.55
2018-01-16T22:18:15.031Z,85.13
2018-01-16T22:20:43.316Z,84.43
2018-01-16T22:23:11.573Z,84.81
2018-01-16T22:25:40.290Z,84.53
2018-01-16T22:28:08.714Z,84.88
2018-01-16T22:30:37.041Z,84.80
2018-01-16T22:33:05.434Z,84.32
2018-01-16T22:35:33.900Z,84.01
2018-01-16T22:38:02.368Z,84.32
2018-01-16T22:40:30.650Z,84.63
2018-01-16T22:43:00.919Z,84.59
2018-01-16T22:45:31.356Z,84.86
2018-01-16T22:47:59.757Z,84.45
2018-01-16T22:50:28.080Z,84.50
2018-01-16T22:52:56.327Z,84.42
2018-01-16T22:55:24.807Z,84.21
2018-01-16T22:57:55.129Z,84.01
2018-01-16T23:00:26.356Z,84.30
2018-01-16T23:02:54.675Z,85.08
2018-01-16T23:05:22.954Z,84.70
2018-01-16T23:07:51.288Z,85.29
2018-01-16T23:10:19.590Z,85.36
2018-01-16T23:12:48.249Z,85.79
2018-01-16T23:15:16.520Z,85.72
2018-01-16T23:17:44.841Z,85.85
2018-01-16T23:20:13.338Z,86.17
2018-01-16T23:22:42.369Z,86.15
2018-01-16T23:25:10.677Z,86.16
2018-01-16T23:27:38.949Z,86.25
2018-01-16T23:30:07.239Z,86.44
2018-01-16T23:32:35.676Z,86.23
2018-01-16T23:35:04.012Z,86.40
2018-01-16T23:37:32.273Z,86.79
2018-01-16T23:40:00.517Z,87.19
2018-01-16T23:42:29.533Z,87.14
2018-01-16T23:45:01.249Z,87.17
2018-01-16T23:47:30.728Z,87.51
2018-01-16T23:49:59.189Z,87.32
2018-01-16T23:52:27.653Z,87.53
2018-01-16T23:54:56.225Z,87.61
2018-01-16T23:57:24.592Z,87.74
2018-01-16T23:59:52.882Z,87.68
